Redding Municipal Airport
KRDD : rendu visible

Aérodrome :











RETROUVEZ-NOUS SUR...

 
LOGIN :

S'inscrire | Disclaimer

   EN    FR    IT 

 









Légende :    VFR   VFR Marginal   IFR   IFR Intensif   IFR Très Intensif
Visi : 
Plafond : 
>= 8 km
>= 3000ft
5 à 8 km
1000 à 3000 ft
1500m à 5 km
500 à 1000 ft
800 à 1500m
200 à 500 ft
< 800m
< 200 ft
Symboles :   Orages  Brouillard  Fortes neiges  Fortes précipitations  Vent > 20 kt






- Altitude de l'aérodrome : 505 ft
- Code IATA : RDD


KRDD - Redding Municipal

DERNIER METAR :
  • 221753Z AUTO 35007KT 10SM CLR 19/M02 A2999 RMK AO2 SLP152 T01941017 10194 20078 51010

METARs EXPIRÉS :
  • 221653Z AUTO 33004KT 10SM CLR 17/M01 A2999 RMK AO2 SLP153 T01671006
  • 221553Z AUTO 34005KT 10SM CLR 13/M02 A2997 RMK AO2 SLP146 T01331017

TAF KRDD
Valide du 22 à 18h jusqu'au 23 à 18h UTC


221720Z 2218/2318 36005KT P6SM SKC



MET'MAP, la Météo Aéronautique d'un coup d'oeil ! - Copyright ORBIFLY Décembre 2007 - Disclaimer

ORBIFLY MET'MAP TEAM :

Programmation & Développement : Alexandra Zaïnal
Sur une idée originale de : Baudouin d'Aumeries
Assistance à la programmation : Marc-Olivier Méhu
Soutien technique & logistique : Manuel Goepfert

Contact : metmap@orbifly.com




SOURCES & CREDITS :

   NOAA       Earth
Advisory